sensor_id;sensor_type;location;lat;lon;timestamp;pressure;altitude;pressure_sealevel;temperature
74060;BMP280;62414;53.436;8.828;2022-11-15T00:01:06;100712.06;;;7.36
74060;BMP280;62414;53.436;8.828;2022-11-15T00:03:51;100710.97;;;7.33
74060;BMP280;62414;53.436;8.828;2022-11-15T00:06:35;100711.75;;;7.30
74060;BMP280;62414;53.436;8.828;2022-11-15T00:09:19;100706.44;;;7.27
74060;BMP280;62414;53.436;8.828;2022-11-15T00:12:05;100711.91;;;7.19
74060;BMP280;62414;53.436;8.828;2022-11-15T00:14:49;100708.13;;;7.13
74060;BMP280;62414;53.436;8.828;2022-11-15T00:17:33;100710.88;;;7.10
74060;BMP280;62414;53.436;8.828;2022-11-15T00:20:17;100715.59;;;7.02
74060;BMP280;62414;53.436;8.828;2022-11-15T00:23:02;100714.81;;;7.02
74060;BMP280;62414;53.436;8.828;2022-11-15T00:25:46;100711.00;;;6.99
74060;BMP280;62414;53.436;8.828;2022-11-15T00:28:32;100703.41;;;6.94
74060;BMP280;62414;53.436;8.828;2022-11-15T00:31:16;100697.63;;;6.92
74060;BMP280;62414;53.436;8.828;2022-11-15T00:34:00;100698.00;;;6.94
74060;BMP280;62414;53.436;8.828;2022-11-15T00:36:44;100701.47;;;6.94
74060;BMP280;62414;53.436;8.828;2022-11-15T00:39:28;100695.75;;;6.89
74060;BMP280;62414;53.436;8.828;2022-11-15T00:42:12;100689.25;;;6.86
74060;BMP280;62414;53.436;8.828;2022-11-15T00:44:57;100688.16;;;6.84
74060;BMP280;62414;53.436;8.828;2022-11-15T00:47:43;100689.34;;;6.79
74060;BMP280;62414;53.436;8.828;2022-11-15T00:50:27;100690.91;;;6.73
74060;BMP280;62414;53.436;8.828;2022-11-15T00:53:11;100701.03;;;6.65
74060;BMP280;62414;53.436;8.828;2022-11-15T00:55:55;100700.66;;;6.63
74060;BMP280;62414;53.436;8.828;2022-11-15T00:58:39;100706.44;;;6.62
74060;BMP280;62414;53.436;8.828;2022-11-15T01:01:25;100698.72;;;6.64
74060;BMP280;62414;53.436;8.828;2022-11-15T01:04:08;100696.84;;;6.61
74060;BMP280;62414;53.436;8.828;2022-11-15T01:06:53;100692.22;;;6.61
74060;BMP280;62414;53.436;8.828;2022-11-15T01:09:37;100696.13;;;6.57
74060;BMP280;62414;53.436;8.828;2022-11-15T01:12:21;100692.69;;;6.56
74060;BMP280;62414;53.436;8.828;2022-11-15T01:15:06;100694.22;;;6.54
74060;BMP280;62414;53.436;8.828;2022-11-15T01:17:51;100689.72;;;6.47
74060;BMP280;62414;53.436;8.828;2022-11-15T01:20:39;100691.22;;;6.48
74060;BMP280;62414;53.436;8.828;2022-11-15T01:23:23;100680.44;;;6.48
74060;BMP280;62414;53.436;8.828;2022-11-15T01:26:09;100668.53;;;6.49
74060;BMP280;62414;53.436;8.828;2022-11-15T01:28:53;100679.69;;;6.48
74060;BMP280;62414;53.436;8.828;2022-11-15T01:31:37;100667.75;;;6.49
74060;BMP280;62414;53.436;8.828;2022-11-15T01:34:23;100668.53;;;6.49
74060;BMP280;62414;53.436;8.828;2022-11-15T01:37:06;100668.19;;;6.47
74060;BMP280;62414;53.436;8.828;2022-11-15T01:39:50;100663.16;;;6.49
74060;BMP280;62414;53.436;8.828;2022-11-15T01:42:34;100678.56;;;6.45
74060;BMP280;62414;53.436;8.828;2022-11-15T01:45:18;100675.94;;;6.42
74060;BMP280;62414;53.436;8.828;2022-11-15T01:48:02;100673.66;;;6.36
74060;BMP280;62414;53.436;8.828;2022-11-15T01:50:48;100666.81;;;6.32
74060;BMP280;62414;53.436;8.828;2022-11-15T01:53:34;100661.44;;;6.32
74060;BMP280;62414;53.436;8.828;2022-11-15T01:56:21;100666.44;;;6.30
74060;BMP280;62414;53.436;8.828;2022-11-15T01:59:07;100656.53;;;6.23
74060;BMP280;62414;53.436;8.828;2022-11-15T02:01:52;100657.28;;;6.20
74060;BMP280;62414;53.436;8.828;2022-11-15T02:04:39;100660.44;;;6.15
74060;BMP280;62414;53.436;8.828;2022-11-15T02:07:25;100652.03;;;6.13
74060;BMP280;62414;53.436;8.828;2022-11-15T02:10:10;100643.66;;;6.04
74060;BMP280;62414;53.436;8.828;2022-11-15T02:12:56;100632.59;;;5.98
74060;BMP280;62414;53.436;8.828;2022-11-15T02:15:50;100639.88;;;5.98
74060;BMP280;62414;53.436;8.828;2022-11-15T02:18:52;100634.88;;;6.00
74060;BMP280;62414;53.436;8.828;2022-11-15T02:21:43;100632.16;;;6.03
74060;BMP280;62414;53.436;8.828;2022-11-15T02:25:01;100624.53;;;5.98
74060;BMP280;62414;53.436;8.828;2022-11-15T02:28:16;100633.38;;;5.95
74060;BMP280;62414;53.436;8.828;2022-11-15T02:31:11;100629.16;;;5.94
74060;BMP280;62414;53.436;8.828;2022-11-15T02:34:02;100618.78;;;5.93
74060;BMP280;62414;53.436;8.828;2022-11-15T02:36:55;100624.94;;;5.93
74060;BMP280;62414;53.436;8.828;2022-11-15T02:39:49;100629.13;;;5.98
74060;BMP280;62414;53.436;8.828;2022-11-15T02:42:36;100619.88;;;6.02
74060;BMP280;62414;53.436;8.828;2022-11-15T02:45:27;100618.31;;;6.05
74060;BMP280;62414;53.436;8.828;2022-11-15T02:48:15;100616.69;;;6.11
74060;BMP280;62414;53.436;8.828;2022-11-15T02:51:00;100612.88;;;6.12
74060;BMP280;62414;53.436;8.828;2022-11-15T02:53:44;100614.00;;;6.11
74060;BMP280;62414;53.436;8.828;2022-11-15T02:56:28;100620.94;;;6.12
74060;BMP280;62414;53.436;8.828;2022-11-15T02:59:28;100616.69;;;6.11
74060;BMP280;62414;53.436;8.828;2022-11-15T03:02:25;100620.94;;;6.12
74060;BMP280;62414;53.436;8.828;2022-11-15T03:05:19;100626.31;;;6.12
74060;BMP280;62414;53.436;8.828;2022-11-15T03:08:09;100625.50;;;6.15
74060;BMP280;62414;53.436;8.828;2022-11-15T03:11:02;100617.72;;;6.24
74060;BMP280;62414;53.436;8.828;2022-11-15T03:13:52;100629.50;;;6.37
74060;BMP280;62414;53.436;8.828;2022-11-15T03:16:40;100618.19;;;6.50
74060;BMP280;62414;53.436;8.828;2022-11-15T03:19:30;100624.22;;;6.61
74060;BMP280;62414;53.436;8.828;2022-11-15T03:22:20;100616.81;;;6.72
74060;BMP280;62414;53.436;8.828;2022-11-15T03:25:08;100615.53;;;6.80
74060;BMP280;62414;53.436;8.828;2022-11-15T03:27:56;100621.19;;;6.89
74060;BMP280;62414;53.436;8.828;2022-11-15T03:30:42;100619.16;;;6.97
74060;BMP280;62414;53.436;8.828;2022-11-15T03:33:28;100614.47;;;7.01
74060;BMP280;62414;53.436;8.828;2022-11-15T03:36:13;100615.16;;;7.09
74060;BMP280;62414;53.436;8.828;2022-11-15T03:39:02;100612.41;;;7.12
74060;BMP280;62414;53.436;8.828;2022-11-15T03:41:56;100613.13;;;7.16
74060;BMP280;62414;53.436;8.828;2022-11-15T03:44:45;100620.66;;;7.25
74060;BMP280;62414;53.436;8.828;2022-11-15T03:47:34;100620.22;;;7.30
74060;BMP280;62414;53.436;8.828;2022-11-15T03:50:21;100614.44;;;7.32
74060;BMP280;62414;53.436;8.828;2022-11-15T03:53:07;100610.16;;;7.34
74060;BMP280;62414;53.436;8.828;2022-11-15T03:55:53;100613.53;;;7.38
74060;BMP280;62414;53.436;8.828;2022-11-15T03:58:37;100611.56;;;7.42
74060;BMP280;62414;53.436;8.828;2022-11-15T04:01:21;100597.63;;;7.47
74060;BMP280;62414;53.436;8.828;2022-11-15T04:04:05;100610.28;;;7.50
74060;BMP280;62414;53.436;8.828;2022-11-15T04:06:49;100611.75;;;7.55
74060;BMP280;62414;53.436;8.828;2022-11-15T04:09:33;100618.59;;;7.60
74060;BMP280;62414;53.436;8.828;2022-11-15T04:12:18;100612.75;;;7.65
74060;BMP280;62414;53.436;8.828;2022-11-15T04:15:04;100605.69;;;7.71
74060;BMP280;62414;53.436;8.828;2022-11-15T04:17:50;100600.59;;;7.76
74060;BMP280;62414;53.436;8.828;2022-11-15T04:20:34;100597.91;;;7.76
74060;BMP280;62414;53.436;8.828;2022-11-15T04:23:20;100601.38;;;7.77
74060;BMP280;62414;53.436;8.828;2022-11-15T04:26:06;100603.25;;;7.80
74060;BMP280;62414;53.436;8.828;2022-11-15T04:28:52;100586.63;;;7.81
74060;BMP280;62414;53.436;8.828;2022-11-15T04:31:35;100591.66;;;7.83
74060;BMP280;62414;53.436;8.828;2022-11-15T04:34:19;100587.00;;;7.84
74060;BMP280;62414;53.436;8.828;2022-11-15T04:37:03;100589.63;;;7.87
74060;BMP280;62414;53.436;8.828;2022-11-15T04:39:47;100584.63;;;7.89
74060;BMP280;62414;53.436;8.828;2022-11-15T04:42:31;100584.63;;;7.89
74060;BMP280;62414;53.436;8.828;2022-11-15T04:45:16;100590.34;;;7.91
74060;BMP280;62414;53.436;8.828;2022-11-15T04:48:00;100592.19;;;7.94
74060;BMP280;62414;53.436;8.828;2022-11-15T04:50:44;100589.84;;;7.96
74060;BMP280;62414;53.436;8.828;2022-11-15T04:53:30;100592.16;;;7.98
74060;BMP280;62414;53.436;8.828;2022-11-15T04:56:14;100594.78;;;8.01
74060;BMP280;62414;53.436;8.828;2022-11-15T04:58:58;100597.38;;;8.05
74060;BMP280;62414;53.436;8.828;2022-11-15T05:01:43;100593.13;;;8.07
74060;BMP280;62414;53.436;8.828;2022-11-15T05:04:27;100600.03;;;8.08
74060;BMP280;62414;53.436;8.828;2022-11-15T05:07:11;100594.16;;;8.14
74060;BMP280;62414;53.436;8.828;2022-11-15T05:09:55;100588.28;;;8.19
74060;BMP280;62414;53.436;8.828;2022-11-15T05:12:39;100583.59;;;8.23
74060;BMP280;62414;53.436;8.828;2022-11-15T05:15:23;100583.09;;;8.28
74060;BMP280;62414;53.436;8.828;2022-11-15T05:18:08;100593.41;;;8.33
74060;BMP280;62414;53.436;8.828;2022-11-15T05:20:53;100578.66;;;8.37
74060;BMP280;62414;53.436;8.828;2022-11-15T05:23:37;100589.38;;;8.41
74060;BMP280;62414;53.436;8.828;2022-11-15T05:26:21;100593.50;;;8.46
74060;BMP280;62414;53.436;8.828;2022-11-15T05:29:05;100584.19;;;8.50
74060;BMP280;62414;53.436;8.828;2022-11-15T05:31:49;100591.78;;;8.55
74060;BMP280;62414;53.436;8.828;2022-11-15T05:34:34;100593.97;;;8.60
74060;BMP280;62414;53.436;8.828;2022-11-15T05:37:18;100598.91;;;8.65
74060;BMP280;62414;53.436;8.828;2022-11-15T05:40:03;100592.94;;;8.74
74060;BMP280;62414;53.436;8.828;2022-11-15T05:42:47;100594.75;;;8.77
74060;BMP280;62414;53.436;8.828;2022-11-15T05:45:33;100585.00;;;8.83
74060;BMP280;62414;53.436;8.828;2022-11-15T05:48:19;100591.94;;;8.84
74060;BMP280;62414;53.436;8.828;2022-11-15T05:51:04;100589.47;;;8.90
74060;BMP280;62414;53.436;8.828;2022-11-15T05:53:51;100591.25;;;8.97
74060;BMP280;62414;53.436;8.828;2022-11-15T05:56:36;100598.09;;;9.01
74060;BMP280;62414;53.436;8.828;2022-11-15T05:59:20;100590.25;;;9.07
74060;BMP280;62414;53.436;8.828;2022-11-15T06:02:04;100590.50;;;9.12
74060;BMP280;62414;53.436;8.828;2022-11-15T06:04:48;100590.94;;;9.11
74060;BMP280;62414;53.436;8.828;2022-11-15T06:07:33;100593.13;;;9.16
74060;BMP280;62414;53.436;8.828;2022-11-15T06:10:17;100592.25;;;9.19
74060;BMP280;62414;53.436;8.828;2022-11-15T06:13:03;100593.72;;;9.23
74060;BMP280;62414;53.436;8.828;2022-11-15T06:15:47;100594.78;;;9.26
74060;BMP280;62414;53.436;8.828;2022-11-15T06:18:32;100593.28;;;9.25
74060;BMP280;62414;53.436;8.828;2022-11-15T06:21:16;100595.88;;;9.29
74060;BMP280;62414;53.436;8.828;2022-11-15T06:24:01;100589.31;;;9.30
74060;BMP280;62414;53.436;8.828;2022-11-15T06:26:45;100589.97;;;9.34
74060;BMP280;62414;53.436;8.828;2022-11-15T06:29:29;100597.66;;;9.35
74060;BMP280;62414;53.436;8.828;2022-11-15T06:32:13;100598.00;;;9.37
74060;BMP280;62414;53.436;8.828;2022-11-15T06:34:57;100598.00;;;9.37
74060;BMP280;62414;53.436;8.828;2022-11-15T06:37:42;100599.88;;;9.40
74060;BMP280;62414;53.436;8.828;2022-11-15T06:40:27;100601.38;;;9.41
74060;BMP280;62414;53.436;8.828;2022-11-15T06:43:11;100602.47;;;9.44
74060;BMP280;62414;53.436;8.828;2022-11-15T06:45:55;100601.97;;;9.49
74060;BMP280;62414;53.436;8.828;2022-11-15T06:48:39;100599.91;;;9.53
74060;BMP280;62414;53.436;8.828;2022-11-15T06:51:23;100599.91;;;9.53
74060;BMP280;62414;53.436;8.828;2022-11-15T06:54:07;100607.16;;;9.56
74060;BMP280;62414;53.436;8.828;2022-11-15T06:56:52;100610.63;;;9.57
74060;BMP280;62414;53.436;8.828;2022-11-15T06:59:36;100611.75;;;9.59
74060;BMP280;62414;53.436;8.828;2022-11-15T07:02:21;100612.06;;;9.61
74060;BMP280;62414;53.436;8.828;2022-11-15T07:05:05;100609.69;;;9.63
74060;BMP280;62414;53.436;8.828;2022-11-15T07:07:54;100604.28;;;9.63
74060;BMP280;62414;53.436;8.828;2022-11-15T07:10:38;100613.16;;;9.64
74060;BMP280;62414;53.436;8.828;2022-11-15T07:13:25;100610.72;;;9.69
74060;BMP280;62414;53.436;8.828;2022-11-15T07:16:10;100616.41;;;9.71
74060;BMP280;62414;53.436;8.828;2022-11-15T07:18:54;100612.88;;;9.74
74060;BMP280;62414;53.436;8.828;2022-11-15T07:21:37;100618.63;;;9.76
74060;BMP280;62414;53.436;8.828;2022-11-15T07:24:22;100611.69;;;9.75
74060;BMP280;62414;53.436;8.828;2022-11-15T07:27:05;100609.44;;;9.74
74060;BMP280;62414;53.436;8.828;2022-11-15T07:29:51;100608.25;;;9.75
74060;BMP280;62414;53.436;8.828;2022-11-15T07:32:34;100614.47;;;9.72
74060;BMP280;62414;53.436;8.828;2022-11-15T07:35:18;100614.16;;;9.70
74060;BMP280;62414;53.436;8.828;2022-11-15T07:38:03;100613.41;;;9.69
74060;BMP280;62414;53.436;8.828;2022-11-15T07:40:47;100606.03;;;9.70
74060;BMP280;62414;53.436;8.828;2022-11-15T07:43:31;100613.50;;;9.66
74060;BMP280;62414;53.436;8.828;2022-11-15T07:46:16;100608.09;;;9.66
74060;BMP280;62414;53.436;8.828;2022-11-15T07:49:00;100614.16;;;9.70
74060;BMP280;62414;53.436;8.828;2022-11-15T07:51:44;100618.97;;;9.78
74060;BMP280;62414;53.436;8.828;2022-11-15T07:54:28;100612.81;;;9.91
74060;BMP280;62414;53.436;8.828;2022-11-15T07:57:12;100614.72;;;10.06
74060;BMP280;62414;53.436;8.828;2022-11-15T07:59:56;100615.94;;;10.18
74060;BMP280;62414;53.436;8.828;2022-11-15T08:02:41;100631.47;;;10.30
74060;BMP280;62414;53.436;8.828;2022-11-15T08:05:25;100631.38;;;10.34
74060;BMP280;62414;53.436;8.828;2022-11-15T08:08:10;100632.97;;;10.31
74060;BMP280;62414;53.436;8.828;2022-11-15T08:10:57;100634.19;;;10.43
74060;BMP280;62414;53.436;8.828;2022-11-15T08:13:41;100633.47;;;10.55
74060;BMP280;62414;53.436;8.828;2022-11-15T08:16:25;100640.28;;;10.60
74060;BMP280;62414;53.436;8.828;2022-11-15T08:19:10;100642.66;;;10.71
74060;BMP280;62414;53.436;8.828;2022-11-15T08:21:54;100638.56;;;10.79
74060;BMP280;62414;53.436;8.828;2022-11-15T08:24:38;100634.31;;;10.90
74060;BMP280;62414;53.436;8.828;2022-11-15T08:27:22;100628.47;;;10.92
74060;BMP280;62414;53.436;8.828;2022-11-15T08:30:06;100635.59;;;10.98
74060;BMP280;62414;53.436;8.828;2022-11-15T08:32:52;100632.50;;;11.00
74060;BMP280;62414;53.436;8.828;2022-11-15T08:35:38;100639.63;;;11.07
74060;BMP280;62414;53.436;8.828;2022-11-15T08:38:22;100639.53;;;11.10
74060;BMP280;62414;53.436;8.828;2022-11-15T08:41:06;100635.59;;;11.24
74060;BMP280;62414;53.436;8.828;2022-11-15T08:43:50;100643.66;;;11.37
74060;BMP280;62414;53.436;8.828;2022-11-15T08:46:34;100642.91;;;11.36
74060;BMP280;62414;53.436;8.828;2022-11-15T08:49:18;100628.91;;;11.38
74060;BMP280;62414;53.436;8.828;2022-11-15T08:52:03;100636.28;;;11.37
74060;BMP280;62414;53.436;8.828;2022-11-15T08:54:47;100630.88;;;11.37
74060;BMP280;62414;53.436;8.828;2022-11-15T08:57:31;100637.50;;;11.36
74060;BMP280;62414;53.436;8.828;2022-11-15T09:00:16;100638.03;;;11.44
74060;BMP280;62414;53.436;8.828;2022-11-15T09:03:03;100634.03;;;11.48
74060;BMP280;62414;53.436;8.828;2022-11-15T09:05:47;100636.56;;;11.52
74060;BMP280;62414;53.436;8.828;2022-11-15T09:08:32;100633.34;;;11.57
74060;BMP280;62414;53.436;8.828;2022-11-15T09:11:16;100641.66;;;11.63
74060;BMP280;62414;53.436;8.828;2022-11-15T09:14:00;100651.50;;;11.69
74060;BMP280;62414;53.436;8.828;2022-11-15T09:16:44;100640.84;;;11.75
74060;BMP280;62414;53.436;8.828;2022-11-15T09:19:28;100628.69;;;11.79
74060;BMP280;62414;53.436;8.828;2022-11-15T09:22:12;100637.72;;;11.76
74060;BMP280;62414;53.436;8.828;2022-11-15T09:24:58;100639.03;;;11.72
74060;BMP280;62414;53.436;8.828;2022-11-15T09:27:42;100631.94;;;11.74
74060;BMP280;62414;53.436;8.828;2022-11-15T09:30:26;100637.25;;;11.78
74060;BMP280;62414;53.436;8.828;2022-11-15T09:33:11;100636.06;;;11.79
74060;BMP280;62414;53.436;8.828;2022-11-15T09:35:59;100642.13;;;11.83
74060;BMP280;62414;53.436;8.828;2022-11-15T09:38:43;100646.69;;;11.86
74060;BMP280;62414;53.436;8.828;2022-11-15T09:41:53;100640.50;;;11.85
74060;BMP280;62414;53.436;8.828;2022-11-15T09:44:44;100632.47;;;11.82
74060;BMP280;62414;53.436;8.828;2022-11-15T09:47:50;100643.31;;;11.82
74060;BMP280;62414;53.436;8.828;2022-11-15T09:50:50;100631.91;;;11.87
74060;BMP280;62414;53.436;8.828;2022-11-15T09:53:22;100628.81;;;11.98
74060;BMP280;62414;53.436;8.828;2022-11-15T09:55:55;100635.50;;;12.06
74060;BMP280;62414;53.436;8.828;2022-11-15T09:58:35;100633.59;;;12.15
74060;BMP280;62414;53.436;8.828;2022-11-15T10:01:06;100644.06;;;12.26
74060;BMP280;62414;53.436;8.828;2022-11-15T10:03:34;100641.44;;;12.44
74060;BMP280;62414;53.436;8.828;2022-11-15T10:06:02;100642.88;;;12.58
74060;BMP280;62414;53.436;8.828;2022-11-15T10:08:37;100641.47;;;12.85
74060;BMP280;62414;53.436;8.828;2022-11-15T10:11:08;100649.19;;;12.95
74060;BMP280;62414;53.436;8.828;2022-11-15T10:13:37;100639.94;;;12.93
74060;BMP280;62414;53.436;8.828;2022-11-15T10:16:12;100633.28;;;12.94
74060;BMP280;62414;53.436;8.828;2022-11-15T10:18:51;100630.91;;;12.96
74060;BMP280;62414;53.436;8.828;2022-11-15T10:21:23;100631.41;;;13.03
74060;BMP280;62414;53.436;8.828;2022-11-15T10:23:50;100633.78;;;13.01
74060;BMP280;62414;53.436;8.828;2022-11-15T10:26:17;100628.50;;;13.07
74060;BMP280;62414;53.436;8.828;2022-11-15T10:28:44;100626.88;;;13.10
74060;BMP280;62414;53.436;8.828;2022-11-15T10:31:21;100617.97;;;13.18
74060;BMP280;62414;53.436;8.828;2022-11-15T10:33:47;100609.97;;;13.24
74060;BMP280;62414;53.436;8.828;2022-11-15T10:36:21;100615.25;;;13.27
74060;BMP280;62414;53.436;8.828;2022-11-15T10:38:53;100605.16;;;13.37
74060;BMP280;62414;53.436;8.828;2022-11-15T10:41:20;100606.78;;;13.62
74060;BMP280;62414;53.436;8.828;2022-11-15T10:44:02;100613.25;;;13.83
74060;BMP280;62414;53.436;8.828;2022-11-15T10:46:28;100606.88;;;13.95
74060;BMP280;62414;53.436;8.828;2022-11-15T10:48:53;100609.00;;;13.91
74060;BMP280;62414;53.436;8.828;2022-11-15T10:51:20;100619.00;;;13.85
74060;BMP280;62414;53.436;8.828;2022-11-15T10:53:46;100615.19;;;13.91
74060;BMP280;62414;53.436;8.828;2022-11-15T10:56:14;100614.56;;;13.96
74060;BMP280;62414;53.436;8.828;2022-11-15T10:58:42;100609.88;;;13.97
74060;BMP280;62414;53.436;8.828;2022-11-15T11:01:11;100610.00;;;14.03
74060;BMP280;62414;53.436;8.828;2022-11-15T11:03:38;100616.06;;;13.97
74060;BMP280;62414;53.436;8.828;2022-11-15T11:06:07;100609.47;;;13.89
74060;BMP280;62414;53.436;8.828;2022-11-15T11:08:32;100606.56;;;13.93
74060;BMP280;62414;53.436;8.828;2022-11-15T11:10:59;100599.84;;;14.12
74060;BMP280;62414;53.436;8.828;2022-11-15T11:13:26;100598.00;;;14.27
74060;BMP280;62414;53.436;8.828;2022-11-15T11:15:55;100608.59;;;14.25
74060;BMP280;62414;53.436;8.828;2022-11-15T11:18:27;100601.06;;;14.20
74060;BMP280;62414;53.436;8.828;2022-11-15T11:20:58;100596.06;;;14.19
74060;BMP280;62414;53.436;8.828;2022-11-15T11:23:36;100596.63;;;14.32
74060;BMP280;62414;53.436;8.828;2022-11-15T11:26:18;100592.19;;;14.44
74060;BMP280;62414;53.436;8.828;2022-11-15T11:28:55;100595.44;;;14.57
74060;BMP280;62414;53.436;8.828;2022-11-15T11:31:35;100591.75;;;14.69
74060;BMP280;62414;53.436;8.828;2022-11-15T11:34:13;100592.44;;;14.79
74060;BMP280;62414;53.436;8.828;2022-11-15T11:36:47;100590.09;;;14.86
74060;BMP280;62414;53.436;8.828;2022-11-15T11:39:24;100586.97;;;15.03
74060;BMP280;62414;53.436;8.828;2022-11-15T11:42:00;100586.25;;;15.17
74060;BMP280;62414;53.436;8.828;2022-11-15T11:44:33;100588.72;;;15.44
74060;BMP280;62414;53.436;8.828;2022-11-15T11:47:00;100592.59;;;15.52
74060;BMP280;62414;53.436;8.828;2022-11-15T11:49:32;100592.13;;;15.54
74060;BMP280;62414;53.436;8.828;2022-11-15T11:52:02;100585.91;;;15.54
74060;BMP280;62414;53.436;8.828;2022-11-15T11:54:37;100587.88;;;15.53
74060;BMP280;62414;53.436;8.828;2022-11-15T11:57:09;100586.88;;;15.65
74060;BMP280;62414;53.436;8.828;2022-11-15T11:59:41;100593.03;;;15.95
74060;BMP280;62414;53.436;8.828;2022-11-15T12:02:12;100585.38;;;16.14
74060;BMP280;62414;53.436;8.828;2022-11-15T12:04:44;100577.97;;;16.00
74060;BMP280;62414;53.436;8.828;2022-11-15T12:07:17;100584.31;;;16.26
74060;BMP280;62414;53.436;8.828;2022-11-15T12:09:46;100572.06;;;15.87
74060;BMP280;62414;53.436;8.828;2022-11-15T12:12:18;100569.66;;;15.59
74060;BMP280;62414;53.436;8.828;2022-11-15T12:14:49;100565.56;;;15.25
74060;BMP280;62414;53.436;8.828;2022-11-15T12:17:19;100553.84;;;14.95
74060;BMP280;62414;53.436;8.828;2022-11-15T12:19:48;100555.72;;;14.89
74060;BMP280;62414;53.436;8.828;2022-11-15T12:22:17;100555.97;;;14.76
74060;BMP280;62414;53.436;8.828;2022-11-15T12:24:49;100561.63;;;14.64
74060;BMP280;62414;53.436;8.828;2022-11-15T12:27:20;100565.75;;;14.59
74060;BMP280;62414;53.436;8.828;2022-11-15T12:29:49;100564.88;;;14.53
74060;BMP280;62414;53.436;8.828;2022-11-15T12:32:25;100560.25;;;14.44
74060;BMP280;62414;53.436;8.828;2022-11-15T12:34:53;100564.19;;;14.43
74060;BMP280;62414;53.436;8.828;2022-11-15T12:37:34;100551.47;;;14.40
74060;BMP280;62414;53.436;8.828;2022-11-15T12:43:36;100546.03;;;14.40
74060;BMP280;62414;53.436;8.828;2022-11-15T12:46:04;100538.06;;;14.37
74060;BMP280;62414;53.436;8.828;2022-11-15T12:48:57;100537.22;;;14.45
74060;BMP280;62414;53.436;8.828;2022-11-15T12:55:02;100541.06;;;14.63
74060;BMP280;62414;53.436;8.828;2022-11-15T12:57:36;100543.94;;;14.59
74060;BMP280;62414;53.436;8.828;2022-11-15T13:02:45;100528.25;;;14.93
74060;BMP280;62414;53.436;8.828;2022-11-15T13:08:36;100536.31;;;16.60
74060;BMP280;62414;53.436;8.828;2022-11-15T13:17:32;100534.16;;;16.90
74060;BMP280;62414;53.436;8.828;2022-11-15T13:20:01;100534.09;;;16.85
74060;BMP280;62414;53.436;8.828;2022-11-15T13:22:27;100525.03;;;16.12
74060;BMP280;62414;53.436;8.828;2022-11-15T13:24:53;100529.34;;;15.83
74060;BMP280;62414;53.436;8.828;2022-11-15T13:27:19;100522.81;;;16.31
74060;BMP280;62414;53.436;8.828;2022-11-15T13:29:46;100522.28;;;16.93
74060;BMP280;62414;53.436;8.828;2022-11-15T13:32:13;100517.94;;;16.61
74060;BMP280;62414;53.436;8.828;2022-11-15T13:34:43;100529.69;;;17.13
74060;BMP280;62414;53.436;8.828;2022-11-15T13:37:12;100536.16;;;18.21
74060;BMP280;62414;53.436;8.828;2022-11-15T13:39:52;100533.13;;;19.07
74060;BMP280;62414;53.436;8.828;2022-11-15T13:42:19;100541.88;;;18.99
74060;BMP280;62414;53.436;8.828;2022-11-15T13:44:56;100541.88;;;19.27
74060;BMP280;62414;53.436;8.828;2022-11-15T13:47:25;100539.31;;;19.68
74060;BMP280;62414;53.436;8.828;2022-11-15T13:49:50;100534.84;;;19.60
74060;BMP280;62414;53.436;8.828;2022-11-15T13:52:16;100535.88;;;19.62
74060;BMP280;62414;53.436;8.828;2022-11-15T13:54:43;100522.13;;;18.67
74060;BMP280;62414;53.436;8.828;2022-11-15T13:57:12;100524.28;;;16.93
74060;BMP280;62414;53.436;8.828;2022-11-15T13:59:45;100515.22;;;16.87
74060;BMP280;62414;53.436;8.828;2022-11-15T14:02:17;100527.53;;;17.91
74060;BMP280;62414;53.436;8.828;2022-11-15T14:04:46;100525.03;;;17.88
74060;BMP280;62414;53.436;8.828;2022-11-15T14:07:16;100521.88;;;16.80
74060;BMP280;62414;53.436;8.828;2022-11-15T14:09:42;100518.34;;;16.13
74060;BMP280;62414;53.436;8.828;2022-11-15T14:12:28;100508.50;;;15.51
74060;BMP280;62414;53.436;8.828;2022-11-15T14:14:55;100520.28;;;16.68
74060;BMP280;62414;53.436;8.828;2022-11-15T14:17:35;100523.16;;;16.59
74060;BMP280;62414;53.436;8.828;2022-11-15T14:20:02;100509.91;;;15.96
74060;BMP280;62414;53.436;8.828;2022-11-15T14:22:51;100506.44;;;15.31
74060;BMP280;62414;53.436;8.828;2022-11-15T14:25:18;100493.06;;;15.04
74060;BMP280;62414;53.436;8.828;2022-11-15T14:30:38;100484.88;;;14.50
74060;BMP280;62414;53.436;8.828;2022-11-15T14:33:19;100488.63;;;14.29
74060;BMP280;62414;53.436;8.828;2022-11-15T14:35:44;100487.22;;;14.10
74060;BMP280;62414;53.436;8.828;2022-11-15T14:38:10;100474.91;;;13.90
74060;BMP280;62414;53.436;8.828;2022-11-15T14:40:35;100480.59;;;13.69
74060;BMP280;62414;53.436;8.828;2022-11-15T14:43:01;100479.41;;;13.60
74060;BMP280;62414;53.436;8.828;2022-11-15T14:45:27;100474.28;;;13.53
74060;BMP280;62414;53.436;8.828;2022-11-15T14:47:52;100466.63;;;13.43
74060;BMP280;62414;53.436;8.828;2022-11-15T14:50:20;100460.72;;;13.35
74060;BMP280;62414;53.436;8.828;2022-11-15T14:52:46;100454.28;;;13.23
74060;BMP280;62414;53.436;8.828;2022-11-15T14:55:16;100457.28;;;13.07
74060;BMP280;62414;53.436;8.828;2022-11-15T14:57:43;100446.63;;;13.03
74060;BMP280;62414;53.436;8.828;2022-11-15T15:00:09;100441.00;;;12.98
74060;BMP280;62414;53.436;8.828;2022-11-15T15:02:38;100438.00;;;12.87
74060;BMP280;62414;53.436;8.828;2022-11-15T15:05:15;100438.63;;;12.82
74060;BMP280;62414;53.436;8.828;2022-11-15T15:07:43;100439.34;;;12.73
74060;BMP280;62414;53.436;8.828;2022-11-15T15:10:08;100433.03;;;12.67
74060;BMP280;62414;53.436;8.828;2022-11-15T15:12:34;100427.59;;;12.58
74060;BMP280;62414;53.436;8.828;2022-11-15T15:14:59;100416.28;;;12.50
74060;BMP280;62414;53.436;8.828;2022-11-15T15:17:25;100422.59;;;12.38
74060;BMP280;62414;53.436;8.828;2022-11-15T15:19:50;100412.00;;;12.31
74060;BMP280;62414;53.436;8.828;2022-11-15T15:22:17;100404.31;;;12.20
74060;BMP280;62414;53.436;8.828;2022-11-15T15:24:45;100407.31;;;12.13
74060;BMP280;62414;53.436;8.828;2022-11-15T15:27:11;100409.09;;;12.07
74060;BMP280;62414;53.436;8.828;2022-11-15T15:29:37;100405.50;;;12.01
74060;BMP280;62414;53.436;8.828;2022-11-15T15:32:03;100402.16;;;11.97
74060;BMP280;62414;53.436;8.828;2022-11-15T15:34:29;100400.47;;;11.90
74060;BMP280;62414;53.436;8.828;2022-11-15T15:37:07;100403.00;;;11.84